PDA6119 LGSK-UKWW
Flight info
| Callsign | PDA6119 |
|---|---|
| Flight time | 1h 45m |
| Altitude | 35000 |
| Route | IBIDI DCT PEREN DCT NIKTI DCT UPAMA DCT DOBOK/K0819F350 DCT UNDOL DCT TAKET |
| Aircraft | A321/M-SDE3FGHIJ4RWY/LB1 |
Departure
| Time | 2026-05-06 20:22 |
|---|---|
| Airport | Skiathos Island National Airport (LGSK) |
Arrival
| Time | 2026-05-06 22:08 |
|---|---|
| Airport | Vinnytsia/Gavyryshivka International Airport (UKWW) |
| Time | Latitude | Longitude | Altitude | Speed | Heading |
|---|---|---|---|---|---|
| 2026-05-06 20:14 | 39.17915 | 23.50233 | 65 ft | 0 kts | 288° |
| 2026-05-06 20:19 | 39.17916 | 23.50232 | 65 ft | 1 kts | 289° |
| 2026-05-06 20:19 | 39.17926 | 23.50232 | 56 ft | 3 kts | 7° |
| 2026-05-06 20:19 | 39.17906 | 23.50303 | 61 ft | 18 kts | 148° |
| 2026-05-06 20:19 | 39.17765 | 23.50254 | 59 ft | 23 kts | 197° |
| 2026-05-06 20:20 | 39.17702 | 23.50305 | 54 ft | 7 kts | 101° |
| 2026-05-06 20:20 | 39.17687 | 23.50343 | 55 ft | 4 kts | 160° |
| 2026-05-06 20:20 | 39.17608 | 23.50320 | 56 ft | 22 kts | 199° |
| 2026-05-06 20:20 | 39.17426 | 23.50239 | 46 ft | 30 kts | 199° |
| 2026-05-06 20:21 | 39.17213 | 23.50144 | 30 ft | 35 kts | 199° |
| 2026-05-06 20:21 | 39.17071 | 23.50078 | 23 ft | 4 kts | 158° |
| 2026-05-06 20:21 | 39.17074 | 23.50089 | 21 ft | 2 kts | 57° |
| 2026-05-06 20:21 | 39.17109 | 23.50100 | 23 ft | 0 kts | 20° |
| 2026-05-06 20:22 | 39.17244 | 23.50161 | 32 ft | 61 kts | 19° |
| 2026-05-06 20:22 | 39.17905 | 23.50452 | 66 ft | 136 kts | 18° |
| 2026-05-06 20:22 | 39.18901 | 23.50876 | 589 ft | 153 kts | 18° |
| 2026-05-06 20:22 | 39.19887 | 23.51353 | 1443 ft | 152 kts | 23° |
| 2026-05-06 20:23 | 39.20937 | 23.51847 | 1817 ft | 171 kts | 20° |
| 2026-05-06 20:23 | 39.22114 | 23.52371 | 1960 ft | 191 kts | 19° |
| 2026-05-06 20:23 | 39.23425 | 23.52944 | 2092 ft | 206 kts | 19° |
| 2026-05-06 20:23 | 39.24822 | 23.53554 | 2273 ft | 220 kts | 19° |
| 2026-05-06 20:24 | 39.26346 | 23.54222 | 2375 ft | 244 kts | 19° |
| 2026-05-06 20:24 | 39.27889 | 23.54902 | 2627 ft | 266 kts | 19° |
| 2026-05-06 20:24 | 39.29687 | 23.55603 | 3276 ft | 273 kts | 14° |
| 2026-05-06 20:24 | 39.31540 | 23.56210 | 4063 ft | 275 kts | 13° |
| 2026-05-06 20:25 | 39.33406 | 23.56781 | 4891 ft | 276 kts | 12° |
| 2026-05-06 20:25 | 39.35275 | 23.57342 | 5696 ft | 277 kts | 12° |
| 2026-05-06 20:25 | 39.37131 | 23.57898 | 6496 ft | 278 kts | 12° |
| 2026-05-06 20:25 | 39.39015 | 23.58470 | 7255 ft | 279 kts | 12° |
| 2026-05-06 20:26 | 39.40916 | 23.59054 | 7991 ft | 282 kts | 12° |
| 2026-05-06 20:26 | 39.42830 | 23.59644 | 8718 ft | 284 kts | 13° |
| 2026-05-06 20:26 | 39.44760 | 23.60247 | 9468 ft | 287 kts | 13° |
| 2026-05-06 20:26 | 39.46704 | 23.60856 | 10174 ft | 289 kts | 13° |
| 2026-05-06 20:27 | 39.48724 | 23.61486 | 10436 ft | 310 kts | 12° |
| 2026-05-06 20:27 | 39.50895 | 23.62163 | 10568 ft | 333 kts | 13° |
| 2026-05-06 20:27 | 39.53189 | 23.62881 | 10980 ft | 343 kts | 13° |
| 2026-05-06 20:27 | 39.55526 | 23.63616 | 11582 ft | 348 kts | 12° |
| 2026-05-06 20:28 | 39.57859 | 23.64349 | 12201 ft | 351 kts | 12° |
| 2026-05-06 20:28 | 39.60244 | 23.65098 | 12841 ft | 355 kts | 12° |
| 2026-05-06 20:28 | 39.62653 | 23.65855 | 13469 ft | 359 kts | 12° |
| 2026-05-06 20:28 | 39.65090 | 23.66620 | 14072 ft | 362 kts | 12° |
| 2026-05-06 20:29 | 39.67555 | 23.67394 | 14651 ft | 365 kts | 11° |
| 2026-05-06 20:29 | 39.70032 | 23.68175 | 15257 ft | 368 kts | 11° |
| 2026-05-06 20:29 | 39.72525 | 23.68962 | 15856 ft | 370 kts | 11° |
| 2026-05-06 20:29 | 39.75034 | 23.69752 | 16455 ft | 373 kts | 11° |
| 2026-05-06 20:30 | 39.77533 | 23.70535 | 17043 ft | 375 kts | 11° |
| 2026-05-06 20:30 | 39.82641 | 23.72138 | 18226 ft | 380 kts | 11° |
| 2026-05-06 20:30 | 39.85217 | 23.72952 | 18744 ft | 383 kts | 11° |
| 2026-05-06 20:31 | 39.87809 | 23.73777 | 19245 ft | 385 kts | 11° |
| 2026-05-06 20:31 | 39.90423 | 23.74613 | 19768 ft | 387 kts | 10° |
| 2026-05-06 20:31 | 39.93050 | 23.75450 | 20305 ft | 389 kts | 10° |
| 2026-05-06 20:31 | 39.95683 | 23.76286 | 20854 ft | 391 kts | 10° |
| 2026-05-06 20:32 | 39.98295 | 23.77114 | 21365 ft | 393 kts | 10° |
| 2026-05-06 20:32 | 40.00956 | 23.77958 | 21866 ft | 395 kts | 10° |
| 2026-05-06 20:32 | 40.03629 | 23.78806 | 22351 ft | 397 kts | 10° |
| 2026-05-06 20:32 | 40.06325 | 23.79662 | 22821 ft | 399 kts | 10° |
| 2026-05-06 20:33 | 40.09031 | 23.80521 | 23304 ft | 402 kts | 9° |
| 2026-05-06 20:33 | 40.11755 | 23.81385 | 23723 ft | 404 kts | 9° |
| 2026-05-06 20:33 | 40.14501 | 23.82256 | 24105 ft | 407 kts | 9° |
| 2026-05-06 20:33 | 40.17255 | 23.83133 | 24479 ft | 409 kts | 9° |
| 2026-05-06 20:34 | 40.19986 | 23.84005 | 24851 ft | 411 kts | 9° |
| 2026-05-06 20:34 | 40.22770 | 23.84897 | 25217 ft | 413 kts | 9° |
| 2026-05-06 20:34 | 40.25565 | 23.85792 | 25579 ft | 414 kts | 9° |
| 2026-05-06 20:34 | 40.28373 | 23.86693 | 25938 ft | 416 kts | 9° |
| 2026-05-06 20:35 | 40.31194 | 23.87602 | 26293 ft | 418 kts | 9° |
| 2026-05-06 20:35 | 40.34027 | 23.88516 | 26646 ft | 420 kts | 9° |
| 2026-05-06 20:35 | 40.36872 | 23.89433 | 26996 ft | 422 kts | 9° |
| 2026-05-06 20:35 | 40.39729 | 23.90351 | 27339 ft | 424 kts | 9° |
| 2026-05-06 20:36 | 40.42570 | 23.91263 | 27674 ft | 426 kts | 9° |
| 2026-05-06 20:36 | 40.45454 | 23.92190 | 28011 ft | 428 kts | 9° |
| 2026-05-06 20:36 | 40.48356 | 23.93124 | 28335 ft | 430 kts | 9° |
| 2026-05-06 20:36 | 40.51266 | 23.94063 | 28651 ft | 432 kts | 9° |
| 2026-05-06 20:37 | 40.54192 | 23.95010 | 28959 ft | 434 kts | 9° |
| 2026-05-06 20:37 | 40.57136 | 23.95962 | 29269 ft | 436 kts | 9° |
| 2026-05-06 20:37 | 40.60096 | 23.96835 | 29575 ft | 436 kts | 5° |
| 2026-05-06 20:37 | 40.63064 | 23.97326 | 29878 ft | 436 kts | 2° |
| 2026-05-06 20:38 | 40.66083 | 23.97801 | 30193 ft | 438 kts | 2° |
| 2026-05-06 20:38 | 40.69115 | 23.98287 | 30456 ft | 440 kts | 3° |
| 2026-05-06 20:38 | 40.72146 | 23.98777 | 30826 ft | 439 kts | 3° |
| 2026-05-06 20:38 | 40.75175 | 23.99269 | 31206 ft | 437 kts | 3° |
| 2026-05-06 20:39 | 40.78188 | 23.99757 | 31575 ft | 436 kts | 2° |
| 2026-05-06 20:39 | 40.81197 | 24.00243 | 31947 ft | 435 kts | 2° |
| 2026-05-06 20:39 | 40.84194 | 24.00726 | 32299 ft | 434 kts | 2° |
| 2026-05-06 20:39 | 40.87191 | 24.01204 | 32651 ft | 433 kts | 2° |
| 2026-05-06 20:40 | 40.90178 | 24.01676 | 32989 ft | 433 kts | 2° |
| 2026-05-06 20:40 | 40.93130 | 24.02143 | 33351 ft | 432 kts | 2° |
| 2026-05-06 20:40 | 40.96112 | 24.02619 | 33721 ft | 431 kts | 2° |
| 2026-05-06 20:40 | 40.99084 | 24.03103 | 34080 ft | 430 kts | 2° |
| 2026-05-06 20:41 | 41.02054 | 24.03593 | 34381 ft | 430 kts | 3° |
| 2026-05-06 20:41 | 41.05014 | 24.04082 | 34675 ft | 429 kts | 3° |
| 2026-05-06 20:41 | 41.07981 | 24.04570 | 34915 ft | 430 kts | 3° |
| 2026-05-06 20:41 | 41.10955 | 24.05054 | 35050 ft | 430 kts | 2° |
| 2026-05-06 20:42 | 41.13918 | 24.05530 | 35072 ft | 428 kts | 2° |
| 2026-05-06 20:42 | 41.19790 | 24.06475 | 35076 ft | 427 kts | 2° |
| 2026-05-06 20:43 | 41.25687 | 24.07424 | 35084 ft | 426 kts | 3° |
| 2026-05-06 20:43 | 41.31571 | 24.08387 | 35085 ft | 426 kts | 3° |
| 2026-05-06 20:44 | 41.37459 | 24.09360 | 35084 ft | 426 kts | 3° |
| 2026-05-06 20:44 | 41.43309 | 24.10321 | 35097 ft | 426 kts | 3° |
| 2026-05-06 20:45 | 41.49194 | 24.11282 | 35092 ft | 427 kts | 3° |
| 2026-05-06 20:45 | 41.55057 | 24.12621 | 35092 ft | 432 kts | 13° |
| 2026-05-06 20:46 | 41.60629 | 24.15764 | 35095 ft | 436 kts | 20° |
| 2026-05-06 20:46 | 41.66157 | 24.19111 | 35098 ft | 436 kts | 20° |
| 2026-05-06 20:47 | 41.71656 | 24.22422 | 35089 ft | 437 kts | 20° |
| 2026-05-06 20:47 | 41.77201 | 24.25765 | 35088 ft | 437 kts | 20° |
| 2026-05-06 20:48 | 41.82743 | 24.29125 | 35092 ft | 437 kts | 20° |
| 2026-05-06 20:48 | 41.88283 | 24.32508 | 35082 ft | 437 kts | 20° |
| 2026-05-06 20:49 | 41.93790 | 24.35865 | 35083 ft | 438 kts | 20° |
| 2026-05-06 20:49 | 41.99339 | 24.39239 | 35085 ft | 438 kts | 20° |
| 2026-05-06 20:50 | 42.04882 | 24.42622 | 35077 ft | 437 kts | 20° |
| 2026-05-06 20:50 | 42.10417 | 24.46006 | 35066 ft | 436 kts | 20° |
| 2026-05-06 20:51 | 42.15944 | 24.49396 | 35064 ft | 436 kts | 20° |
| 2026-05-06 20:51 | 42.21425 | 24.52763 | 35052 ft | 436 kts | 20° |
| 2026-05-06 20:52 | 42.26947 | 24.56158 | 35055 ft | 436 kts | 21° |
| 2026-05-06 20:52 | 42.32467 | 24.59567 | 35061 ft | 436 kts | 21° |
| 2026-05-06 20:53 | 42.37989 | 24.62985 | 35053 ft | 436 kts | 21° |
| 2026-05-06 20:53 | 42.43469 | 24.66375 | 35054 ft | 436 kts | 21° |
| 2026-05-06 20:54 | 42.48980 | 24.69795 | 35061 ft | 435 kts | 21° |
| 2026-05-06 20:54 | 42.54478 | 24.73220 | 35059 ft | 435 kts | 21° |
| 2026-05-06 20:55 | 42.59969 | 24.76641 | 35062 ft | 434 kts | 21° |
| 2026-05-06 20:55 | 42.65465 | 24.80063 | 35059 ft | 434 kts | 21° |
| 2026-05-06 20:56 | 42.70912 | 24.83466 | 35058 ft | 433 kts | 21° |
| 2026-05-06 20:56 | 42.76383 | 24.86901 | 35053 ft | 433 kts | 21° |
| 2026-05-06 20:57 | 42.81852 | 24.90331 | 35058 ft | 433 kts | 21° |
| 2026-05-06 20:57 | 42.87324 | 24.93766 | 35051 ft | 432 kts | 21° |
| 2026-05-06 20:58 | 42.92751 | 24.97183 | 35048 ft | 433 kts | 21° |
| 2026-05-06 20:58 | 42.98212 | 25.00636 | 35053 ft | 432 kts | 21° |
| 2026-05-06 20:59 | 43.03658 | 25.04081 | 35028 ft | 431 kts | 21° |
| 2026-05-06 20:59 | 43.09111 | 25.07546 | 35019 ft | 432 kts | 21° |
| 2026-05-06 21:00 | 43.14525 | 25.10985 | 35018 ft | 432 kts | 21° |
| 2026-05-06 21:00 | 43.19984 | 25.14453 | 35020 ft | 432 kts | 21° |
| 2026-05-06 21:01 | 43.25428 | 25.17929 | 35021 ft | 432 kts | 21° |
| 2026-05-06 21:01 | 43.30873 | 25.21401 | 35032 ft | 431 kts | 21° |
| 2026-05-06 21:02 | 43.36273 | 25.24854 | 35028 ft | 430 kts | 21° |
| 2026-05-06 21:02 | 43.41690 | 25.28329 | 35027 ft | 429 kts | 21° |
| 2026-05-06 21:03 | 43.47096 | 25.31807 | 35028 ft | 429 kts | 21° |
| 2026-05-06 21:03 | 43.52500 | 25.35288 | 35037 ft | 428 kts | 21° |
| 2026-05-06 21:04 | 43.57865 | 25.38746 | 35024 ft | 428 kts | 21° |
| 2026-05-06 21:04 | 43.63281 | 25.42158 | 35026 ft | 426 kts | 16° |
| 2026-05-06 21:05 | 43.68849 | 25.44912 | 35038 ft | 425 kts | 16° |
| 2026-05-06 21:05 | 43.74423 | 25.47653 | 35038 ft | 425 kts | 16° |
| 2026-05-06 21:06 | 43.79992 | 25.50404 | 35038 ft | 425 kts | 16° |
| 2026-05-06 21:06 | 43.85515 | 25.53151 | 35037 ft | 425 kts | 16° |
| 2026-05-06 21:07 | 43.91081 | 25.55923 | 35044 ft | 425 kts | 16° |
| 2026-05-06 21:07 | 43.96645 | 25.58701 | 35039 ft | 425 kts | 16° |
| 2026-05-06 21:08 | 44.02206 | 25.61484 | 35056 ft | 425 kts | 16° |
| 2026-05-06 21:08 | 44.07729 | 25.64250 | 35051 ft | 425 kts | 16° |
| 2026-05-06 21:09 | 44.13284 | 25.67043 | 35039 ft | 425 kts | 16° |
| 2026-05-06 21:09 | 44.18849 | 25.69835 | 35044 ft | 425 kts | 16° |
| 2026-05-06 21:10 | 44.24421 | 25.72638 | 35063 ft | 426 kts | 16° |
| 2026-05-06 21:10 | 44.29950 | 25.75435 | 35062 ft | 426 kts | 16° |
| 2026-05-06 21:11 | 44.35518 | 25.78251 | 35069 ft | 425 kts | 16° |
| 2026-05-06 21:11 | 44.41083 | 25.81061 | 35084 ft | 425 kts | 16° |
| 2026-05-06 21:12 | 44.46645 | 25.83880 | 35085 ft | 425 kts | 16° |
| 2026-05-06 21:12 | 44.52193 | 25.86712 | 35081 ft | 425 kts | 16° |
| 2026-05-06 21:13 | 44.57704 | 25.89533 | 35092 ft | 424 kts | 16° |
| 2026-05-06 21:13 | 44.63251 | 25.92360 | 35086 ft | 424 kts | 16° |
| 2026-05-06 21:14 | 44.68792 | 25.95188 | 35082 ft | 423 kts | 16° |
| 2026-05-06 21:14 | 44.74323 | 25.98025 | 35083 ft | 423 kts | 16° |
| 2026-05-06 21:15 | 44.79820 | 26.00857 | 35084 ft | 423 kts | 16° |
| 2026-05-06 21:15 | 44.85347 | 26.03703 | 35099 ft | 423 kts | 16° |
| 2026-05-06 21:16 | 44.90873 | 26.06551 | 35100 ft | 423 kts | 16° |
| 2026-05-06 21:16 | 44.96399 | 26.09407 | 35110 ft | 423 kts | 16° |
| 2026-05-06 21:17 | 45.01923 | 26.12275 | 35091 ft | 423 kts | 16° |
| 2026-05-06 21:17 | 45.07421 | 26.15127 | 35098 ft | 424 kts | 16° |
| 2026-05-06 21:18 | 45.12953 | 26.18008 | 35103 ft | 424 kts | 16° |
| 2026-05-06 21:18 | 45.18491 | 26.20901 | 35111 ft | 424 kts | 16° |
| 2026-05-06 21:19 | 45.23997 | 26.23792 | 35113 ft | 425 kts | 16° |
| 2026-05-06 21:19 | 45.29539 | 26.26693 | 35107 ft | 425 kts | 16° |
| 2026-05-06 21:20 | 45.35083 | 26.29598 | 35114 ft | 425 kts | 17° |
| 2026-05-06 21:20 | 45.40636 | 26.32524 | 35119 ft | 425 kts | 16° |
| 2026-05-06 21:21 | 45.46187 | 26.35447 | 35119 ft | 426 kts | 17° |
| 2026-05-06 21:21 | 45.51710 | 26.38356 | 35135 ft | 426 kts | 17° |
| 2026-05-06 21:22 | 45.57271 | 26.41301 | 35122 ft | 426 kts | 17° |
| 2026-05-06 21:22 | 45.62827 | 26.44252 | 35117 ft | 427 kts | 17° |
| 2026-05-06 21:23 | 45.68400 | 26.47209 | 35110 ft | 427 kts | 17° |
| 2026-05-06 21:23 | 45.73930 | 26.50151 | 35110 ft | 427 kts | 17° |
| 2026-05-06 21:24 | 45.79499 | 26.53126 | 35117 ft | 427 kts | 17° |
| 2026-05-06 21:24 | 45.85069 | 26.56093 | 35115 ft | 427 kts | 17° |
| 2026-05-06 21:25 | 45.90638 | 26.59081 | 35110 ft | 427 kts | 17° |
| 2026-05-06 21:25 | 45.96171 | 26.62052 | 35102 ft | 428 kts | 17° |
| 2026-05-06 21:26 | 46.01737 | 26.65048 | 35100 ft | 428 kts | 17° |
| 2026-05-06 21:26 | 46.07310 | 26.68058 | 35092 ft | 428 kts | 17° |
| 2026-05-06 21:27 | 46.12884 | 26.71069 | 35100 ft | 428 kts | 17° |
| 2026-05-06 21:27 | 46.18424 | 26.74077 | 35091 ft | 429 kts | 17° |
| 2026-05-06 21:28 | 46.24012 | 26.77118 | 35081 ft | 429 kts | 17° |
| 2026-05-06 21:28 | 46.29600 | 26.80152 | 35085 ft | 429 kts | 17° |
| 2026-05-06 21:29 | 46.35192 | 26.83191 | 35077 ft | 430 kts | 18° |
| 2026-05-06 21:29 | 46.40756 | 26.86238 | 35051 ft | 430 kts | 18° |
| 2026-05-06 21:30 | 46.46354 | 26.89313 | 35046 ft | 431 kts | 18° |
| 2026-05-06 21:30 | 46.51963 | 26.92389 | 35053 ft | 431 kts | 18° |
| 2026-05-06 21:31 | 46.57575 | 26.95475 | 35054 ft | 431 kts | 18° |
| 2026-05-06 21:31 | 46.63184 | 26.98577 | 35053 ft | 431 kts | 18° |
| 2026-05-06 21:32 | 46.68762 | 27.01648 | 35060 ft | 432 kts | 18° |
| 2026-05-06 21:32 | 46.77192 | 27.06312 | 35060 ft | 432 kts | 18° |
| 2026-05-06 21:33 | 46.82808 | 27.09436 | 35058 ft | 432 kts | 18° |
| 2026-05-06 21:33 | 46.88424 | 27.12562 | 35064 ft | 432 kts | 18° |
| 2026-05-06 21:34 | 46.94008 | 27.15684 | 35050 ft | 432 kts | 18° |
| 2026-05-06 21:34 | 46.99633 | 27.18837 | 35046 ft | 433 kts | 18° |
| 2026-05-06 21:35 | 47.05267 | 27.21991 | 35044 ft | 433 kts | 18° |
| 2026-05-06 21:35 | 47.10901 | 27.25146 | 35055 ft | 434 kts | 19° |
| 2026-05-06 21:36 | 47.16504 | 27.28300 | 35049 ft | 434 kts | 19° |
| 2026-05-06 21:36 | 47.22141 | 27.31494 | 35049 ft | 435 kts | 19° |
| 2026-05-06 21:37 | 47.27786 | 27.34694 | 35052 ft | 435 kts | 19° |
| 2026-05-06 21:37 | 47.33438 | 27.37898 | 35041 ft | 435 kts | 19° |
| 2026-05-06 21:38 | 47.39048 | 27.41076 | 35045 ft | 435 kts | 19° |
| 2026-05-06 21:38 | 47.44700 | 27.44300 | 35044 ft | 435 kts | 19° |
| 2026-05-06 21:39 | 47.50405 | 27.47212 | 35052 ft | 433 kts | 10° |
| 2026-05-06 21:39 | 47.56331 | 27.48752 | 35043 ft | 432 kts | 8° |
| 2026-05-06 21:40 | 47.62255 | 27.50285 | 35046 ft | 432 kts | 8° |
| 2026-05-06 21:40 | 47.68090 | 27.51814 | 34882 ft | 422 kts | 8° |
| 2026-05-06 21:41 | 47.71016 | 27.52580 | 33913 ft | 432 kts | 8° |
| 2026-05-06 21:41 | 47.74002 | 27.53355 | 32930 ft | 439 kts | 8° |
| 2026-05-06 21:41 | 47.77026 | 27.54140 | 32124 ft | 442 kts | 8° |
| 2026-05-06 21:41 | 47.80057 | 27.54928 | 31490 ft | 442 kts | 8° |
| 2026-05-06 21:42 | 47.83077 | 27.55716 | 30931 ft | 439 kts | 8° |
| 2026-05-06 21:42 | 47.86035 | 27.56490 | 30397 ft | 437 kts | 8° |
| 2026-05-06 21:42 | 47.89017 | 27.57273 | 29810 ft | 434 kts | 8° |
| 2026-05-06 21:42 | 47.91973 | 27.58052 | 29198 ft | 430 kts | 9° |
| 2026-05-06 21:43 | 47.94917 | 27.58829 | 28607 ft | 427 kts | 8° |
| 2026-05-06 21:43 | 47.97831 | 27.59595 | 28013 ft | 423 kts | 9° |
| 2026-05-06 21:43 | 48.00720 | 27.60356 | 27414 ft | 421 kts | 8° |
| 2026-05-06 21:43 | 48.03589 | 27.61111 | 26849 ft | 417 kts | 8° |
| 2026-05-06 21:44 | 48.06443 | 27.61861 | 26275 ft | 415 kts | 8° |
| 2026-05-06 21:44 | 48.09277 | 27.62605 | 25712 ft | 413 kts | 8° |
| 2026-05-06 21:44 | 48.12096 | 27.63346 | 25166 ft | 410 kts | 9° |
| 2026-05-06 21:44 | 48.14864 | 27.64079 | 24636 ft | 408 kts | 9° |
| 2026-05-06 21:45 | 48.17655 | 27.64819 | 24127 ft | 407 kts | 9° |
| 2026-05-06 21:45 | 48.20432 | 27.65554 | 23627 ft | 405 kts | 10° |
| 2026-05-06 21:45 | 48.23208 | 27.66292 | 23074 ft | 404 kts | 10° |
| 2026-05-06 21:45 | 48.25964 | 27.67027 | 22559 ft | 401 kts | 10° |
| 2026-05-06 21:46 | 48.28706 | 27.67758 | 22055 ft | 399 kts | 10° |
| 2026-05-06 21:46 | 48.31427 | 27.68485 | 21559 ft | 397 kts | 10° |
| 2026-05-06 21:46 | 48.34136 | 27.69209 | 21062 ft | 394 kts | 10° |
| 2026-05-06 21:46 | 48.36827 | 27.69932 | 20550 ft | 392 kts | 9° |
| 2026-05-06 21:47 | 48.39478 | 27.70645 | 19982 ft | 393 kts | 9° |
| 2026-05-06 21:47 | 48.42162 | 27.71364 | 19497 ft | 390 kts | 9° |
| 2026-05-06 21:47 | 48.44824 | 27.72073 | 19023 ft | 387 kts | 9° |
| 2026-05-06 21:47 | 48.47474 | 27.72750 | 18538 ft | 385 kts | 8° |
| 2026-05-06 21:48 | 48.50117 | 27.73368 | 18025 ft | 383 kts | 8° |
| 2026-05-06 21:48 | 48.52747 | 27.73956 | 17510 ft | 380 kts | 8° |
| 2026-05-06 21:48 | 48.55351 | 27.74535 | 16980 ft | 377 kts | 8° |
| 2026-05-06 21:48 | 48.57906 | 27.75107 | 16446 ft | 376 kts | 8° |
| 2026-05-06 21:49 | 48.60479 | 27.75690 | 15946 ft | 373 kts | 8° |
| 2026-05-06 21:49 | 48.63025 | 27.76275 | 15495 ft | 369 kts | 8° |
| 2026-05-06 21:49 | 48.65551 | 27.76854 | 15010 ft | 366 kts | 8° |
| 2026-05-06 21:49 | 48.68058 | 27.77427 | 14523 ft | 363 kts | 9° |
| 2026-05-06 21:50 | 48.70551 | 27.77999 | 14039 ft | 361 kts | 9° |
| 2026-05-06 21:50 | 48.73022 | 27.78567 | 13545 ft | 358 kts | 9° |
| 2026-05-06 21:50 | 48.75480 | 27.79135 | 13028 ft | 356 kts | 9° |
| 2026-05-06 21:50 | 48.77912 | 27.79703 | 12541 ft | 353 kts | 8° |
| 2026-05-06 21:51 | 48.80296 | 27.80260 | 12069 ft | 349 kts | 8° |
| 2026-05-06 21:51 | 48.82686 | 27.80815 | 11589 ft | 347 kts | 8° |
| 2026-05-06 21:51 | 48.85063 | 27.81366 | 11123 ft | 344 kts | 8° |
| 2026-05-06 21:51 | 48.87414 | 27.81913 | 10675 ft | 340 kts | 8° |
| 2026-05-06 21:52 | 48.89739 | 27.82457 | 10251 ft | 336 kts | 7° |
| 2026-05-06 21:52 | 48.92023 | 27.82990 | 10061 ft | 325 kts | 7° |
| 2026-05-06 21:52 | 48.94208 | 27.83519 | 9954 ft | 312 kts | 10° |
| 2026-05-06 21:52 | 48.96207 | 27.84636 | 9821 ft | 302 kts | 28° |
| 2026-05-06 21:53 | 48.97866 | 27.86550 | 9701 ft | 300 kts | 46° |
| 2026-05-06 21:53 | 48.99117 | 27.89082 | 9559 ft | 298 kts | 57° |
| 2026-05-06 21:53 | 49.00229 | 27.91689 | 9433 ft | 297 kts | 56° |
| 2026-05-06 21:53 | 49.01349 | 27.94301 | 9218 ft | 296 kts | 56° |
| 2026-05-06 21:54 | 49.02485 | 27.96941 | 8826 ft | 295 kts | 56° |
| 2026-05-06 21:54 | 49.03605 | 27.99541 | 8460 ft | 293 kts | 57° |
| 2026-05-06 21:54 | 49.04716 | 28.02133 | 8101 ft | 292 kts | 57° |
| 2026-05-06 21:54 | 49.05827 | 28.04725 | 7736 ft | 291 kts | 57° |
| 2026-05-06 21:55 | 49.06930 | 28.07299 | 7400 ft | 289 kts | 57° |
| 2026-05-06 21:55 | 49.08027 | 28.09865 | 7052 ft | 288 kts | 57° |
| 2026-05-06 21:55 | 49.09120 | 28.12428 | 6703 ft | 287 kts | 58° |
| 2026-05-06 21:55 | 49.10192 | 28.14944 | 6366 ft | 286 kts | 58° |
| 2026-05-06 21:56 | 49.11276 | 28.17483 | 6039 ft | 284 kts | 58° |
| 2026-05-06 21:56 | 49.12353 | 28.20014 | 6001 ft | 287 kts | 58° |
| 2026-05-06 21:56 | 49.13445 | 28.22580 | 6003 ft | 288 kts | 58° |
| 2026-05-06 21:56 | 49.14524 | 28.25118 | 5968 ft | 281 kts | 58° |
| 2026-05-06 21:57 | 49.15587 | 28.27620 | 6001 ft | 285 kts | 58° |
| 2026-05-06 21:57 | 49.16668 | 28.30177 | 6004 ft | 287 kts | 58° |
| 2026-05-06 21:57 | 49.17751 | 28.32737 | 5907 ft | 286 kts | 58° |
| 2026-05-06 21:57 | 49.18831 | 28.35288 | 5544 ft | 285 kts | 58° |
| 2026-05-06 21:58 | 49.19954 | 28.37779 | 5176 ft | 285 kts | 49° |
| 2026-05-06 21:58 | 49.21471 | 28.39657 | 4815 ft | 286 kts | 34° |
| 2026-05-06 21:58 | 49.23187 | 28.41209 | 4415 ft | 287 kts | 28° |
| 2026-05-06 21:58 | 49.24960 | 28.42631 | 4049 ft | 287 kts | 27° |
| 2026-05-06 21:59 | 49.26727 | 28.44022 | 3775 ft | 282 kts | 27° |
| 2026-05-06 21:59 | 49.28467 | 28.45268 | 3645 ft | 271 kts | 13° |
| 2026-05-06 21:59 | 49.30271 | 28.45381 | 3518 ft | 253 kts | 342° |
| 2026-05-06 21:59 | 49.31778 | 28.44208 | 3279 ft | 238 kts | 310° |
| 2026-05-06 22:00 | 49.32417 | 28.42905 | 3087 ft | 227 kts | 287° |
| 2026-05-06 22:00 | 49.32492 | 28.39892 | 3007 ft | 213 kts | 242° |
| 2026-05-06 22:00 | 49.31581 | 28.38205 | 3001 ft | 211 kts | 210° |
| 2026-05-06 22:00 | 49.30190 | 28.37562 | 3004 ft | 213 kts | 182° |
| 2026-05-06 22:01 | 49.28761 | 28.38198 | 3001 ft | 222 kts | 149° |
| 2026-05-06 22:01 | 49.27758 | 28.40042 | 2999 ft | 233 kts | 117° |
| 2026-05-06 22:01 | 49.27563 | 28.42451 | 3015 ft | 227 kts | 83° |
| 2026-05-06 22:01 | 49.27926 | 28.43917 | 2995 ft | 221 kts | 58° |
| 2026-05-06 22:02 | 49.29060 | 28.45419 | 3020 ft | 217 kts | 25° |
| 2026-05-06 22:02 | 49.30509 | 28.45773 | 3015 ft | 209 kts | 346° |
| 2026-05-06 22:02 | 49.31741 | 28.44805 | 3002 ft | 195 kts | 306° |
| 2026-05-06 22:02 | 49.32237 | 28.42416 | 3003 ft | 175 kts | 253° |
| 2026-05-06 22:03 | 49.31616 | 28.40921 | 2996 ft | 168 kts | 213° |
| 2026-05-06 22:03 | 49.30876 | 28.40517 | 3002 ft | 171 kts | 186° |
| 2026-05-06 22:03 | 49.29748 | 28.41048 | 3007 ft | 182 kts | 147° |
| 2026-05-06 22:03 | 49.29071 | 28.42731 | 3000 ft | 197 kts | 107° |
| 2026-05-06 22:04 | 49.29235 | 28.44843 | 2999 ft | 209 kts | 68° |
| 2026-05-06 22:04 | 49.30213 | 28.46497 | 3007 ft | 214 kts | 34° |
| 2026-05-06 22:04 | 49.31524 | 28.47567 | 2999 ft | 214 kts | 24° |
| 2026-05-06 22:04 | 49.32639 | 28.48989 | 2806 ft | 207 kts | 64° |
| 2026-05-06 22:05 | 49.32815 | 28.51048 | 2416 ft | 191 kts | 116° |
| 2026-05-06 22:05 | 49.32040 | 28.52453 | 2048 ft | 164 kts | 159° |
| 2026-05-06 22:05 | 49.31071 | 28.53062 | 2009 ft | 144 kts | 167° |
| 2026-05-06 22:05 | 49.30167 | 28.53623 | 2004 ft | 142 kts | 162° |
| 2026-05-06 22:06 | 49.29313 | 28.54374 | 2004 ft | 142 kts | 155° |
| 2026-05-06 22:06 | 49.28546 | 28.55328 | 2002 ft | 142 kts | 146° |
| 2026-05-06 22:06 | 49.27836 | 28.56352 | 1980 ft | 143 kts | 139° |
| 2026-05-06 22:06 | 49.27236 | 28.57567 | 1738 ft | 139 kts | 146° |
| 2026-05-06 22:07 | 49.26485 | 28.58459 | 1448 ft | 137 kts | 148° |
| 2026-05-06 22:07 | 49.25723 | 28.59390 | 1216 ft | 142 kts | 142° |
| 2026-05-06 22:07 | 49.24985 | 28.60386 | 1012 ft | 142 kts | 140° |
| 2026-05-06 22:07 | 49.24330 | 28.61273 | 981 ft | 96 kts | 137° |
| 2026-05-06 22:08 | 49.24051 | 28.61657 | 968 ft | 24 kts | 139° |
| 2026-05-06 22:08 | 49.23972 | 28.61758 | 970 ft | 4 kts | 56° |
| 2026-05-06 22:08 | 49.24006 | 28.61722 | 964 ft | 11 kts | 314° |
| 2026-05-06 22:08 | 49.24097 | 28.61581 | 967 ft | 25 kts | 319° |
| 2026-05-06 22:09 | 49.24238 | 28.61401 | 980 ft | 26 kts | 316° |
| 2026-05-06 22:09 | 49.24356 | 28.61238 | 977 ft | 22 kts | 318° |
| 2026-05-06 22:09 | 49.24472 | 28.61080 | 977 ft | 10 kts | 314° |
| 2026-05-06 22:09 | 49.24465 | 28.61007 | 975 ft | 10 kts | 246° |
| 2026-05-06 22:10 | 49.24398 | 28.60890 | 978 ft | 16 kts | 227° |
| 2026-05-06 22:10 | 49.24328 | 28.60771 | 978 ft | 14 kts | 227° |
| 2026-05-06 22:10 | 49.24280 | 28.60690 | 972 ft | 0 kts | 228° |
| 2026-05-06 22:10 | 49.24274 | 28.60680 | 984 ft | 2 kts | 228° |
| 2026-05-06 22:11 | 49.24270 | 28.60659 | 977 ft | 2 kts | 279° |
| 2026-05-06 22:11 | 49.24279 | 28.60631 | 982 ft | 4 kts | 306° |
| 2026-05-06 22:11 | 49.24290 | 28.60614 | 972 ft | 0 kts | 317° |
| 2026-05-06 22:12 | 49.24291 | 28.60613 | 972 ft | 0 kts | 317° |